createdAt,value
2022-09-22T00:01:52.199Z,101018.88
2022-09-22T00:06:57.364Z,101012.72
2022-09-22T00:12:00.079Z,101006.72
2022-09-22T00:17:03.605Z,101008.78
2022-09-22T00:22:07.881Z,101007.13
2022-09-22T00:27:10.627Z,101002.88
2022-09-22T00:32:13.513Z,101006.78
2022-09-22T00:37:17.490Z,101002.63
2022-09-22T00:42:20.832Z,100997.50
2022-09-22T00:47:34.925Z,100998.53
2022-09-22T00:52:44.295Z,100997.88
2022-09-22T00:57:49.266Z,100999.72
2022-09-22T01:02:57.048Z,101000.00
2022-09-22T01:08:01.710Z,101002.88
2022-09-22T01:13:18.884Z,100993.16
2022-09-22T01:18:31.206Z,100995.19
2022-09-22T01:24:15.108Z,100985.47
2022-09-22T01:29:44.634Z,100985.66
2022-09-22T01:34:56.250Z,100978.63
2022-09-22T01:40:05.627Z,100976.97
2022-09-22T01:45:12.198Z,100981.59
2022-09-22T01:50:23.177Z,100971.00
2022-09-22T01:55:29.428Z,100963.97
2022-09-22T02:00:32.816Z,100964.16
2022-09-22T02:05:40.522Z,100958.88
2022-09-22T02:10:47.926Z,100960.81
2022-09-22T02:16:02.558Z,100953.84
2022-09-22T02:21:07.030Z,100974.56
2022-09-22T02:26:11.266Z,100965.78
2022-09-22T02:31:20.808Z,100953.28
2022-09-22T02:36:42.950Z,100967.81
2022-09-22T02:42:01.596Z,100967.91
2022-09-22T02:47:10.627Z,100972.53
2022-09-22T02:52:15.861Z,100970.91
2022-09-22T02:57:18.513Z,100973.66
2022-09-22T03:02:21.121Z,100963.97
2022-09-22T03:07:25.196Z,100963.16
2022-09-22T03:12:27.843Z,100959.72
2022-09-22T03:17:32.071Z,100950.94
2022-09-22T03:22:36.147Z,100942.78
2022-09-22T03:27:39.602Z,100948.41
2022-09-22T03:32:42.241Z,100941.19
2022-09-22T03:37:46.752Z,100953.91
2022-09-22T03:42:49.477Z,100954.75
2022-09-22T03:47:54.280Z,100949.44
2022-09-22T03:52:59.409Z,100946.84
2022-09-22T03:58:01.996Z,100950.63
2022-09-22T04:03:04.845Z,100948.88
2022-09-22T04:08:08.777Z,100943.56
2022-09-22T04:13:11.668Z,100942.81
2022-09-22T04:18:15.849Z,100939.41
2022-09-22T04:23:19.721Z,100938.66
2022-09-22T04:28:22.784Z,100931.53
2022-09-22T04:33:26.307Z,100933.44
2022-09-22T04:38:30.214Z,100937.09
2022-09-22T04:43:32.874Z,100930.94
2022-09-22T04:48:35.525Z,100929.28
2022-09-22T04:53:39.506Z,100942.88
2022-09-22T04:58:42.056Z,100946.53
2022-09-22T05:03:44.653Z,100943.06
2022-09-22T05:08:48.646Z,100948.53
2022-09-22T05:13:51.975Z,100947.75
2022-09-22T05:18:54.660Z,100958.53
2022-09-22T05:23:58.682Z,100961.34
2022-09-22T05:29:01.231Z,100962.25
2022-09-22T05:34:05.349Z,100964.19
2022-09-22T05:39:09.517Z,100962.47
2022-09-22T05:44:12.217Z,100966.13
2022-09-22T05:49:14.881Z,100979.66
2022-09-22T05:54:23.125Z,100973.41
2022-09-22T05:59:26.035Z,100991.41
2022-09-22T06:04:28.648Z,100980.72
2022-09-22T06:09:32.660Z,100981.59
2022-09-22T06:14:35.532Z,100982.44
2022-09-22T06:19:38.536Z,100984.28
2022-09-22T06:24:42.668Z,100990.53
2022-09-22T06:29:45.355Z,100979.88
2022-09-22T06:34:48.138Z,100980.72
2022-09-22T06:39:52.076Z,100978.03
2022-09-22T06:44:55.179Z,100976.19
2022-09-22T06:49:57.778Z,100976.19
2022-09-22T06:55:01.690Z,100985.06
2022-09-22T07:00:04.993Z,100985.94
2022-09-22T07:05:08.190Z,100977.16
2022-09-22T07:10:12.253Z,100990.28
2022-09-22T07:15:14.880Z,100986.69
2022-09-22T07:20:17.735Z,100991.41
2022-09-22T07:25:21.670Z,100985.88
2022-09-22T07:30:26.152Z,100988.06
2022-09-22T07:35:29.270Z,100980.91
2022-09-22T07:40:33.598Z,100980.22
2022-09-22T07:45:36.168Z,100979.53
2022-09-22T07:50:38.756Z,100984.41
2022-09-22T07:55:42.644Z,100979.44
2022-09-22T08:00:45.350Z,100979.72
2022-09-22T08:05:53.352Z,100985.81
2022-09-22T08:11:04.754Z,100980.13
2022-09-22T08:16:07.819Z,100985.38
2022-09-22T08:21:10.746Z,100977.03
2022-09-22T08:26:14.675Z,100980.25
2022-09-22T08:31:20.155Z,100982.44
2022-09-22T08:36:24.187Z,100978.31
2022-09-22T08:41:38.989Z,100979.97
2022-09-22T08:46:44.416Z,100983.28
2022-09-22T08:51:53.864Z,100984.16
2022-09-22T08:57:12.570Z,100987.44
2022-09-22T09:02:38.185Z,100984.38
2022-09-22T09:07:49.359Z,100993.06
2022-09-22T09:13:14.674Z,100981.09
2022-09-22T09:18:22.278Z,100984.97
2022-09-22T09:25:22.108Z,100982.91
2022-09-22T09:29:03.501Z,100984.41
2022-09-22T09:34:14.612Z,100977.97
2022-09-22T09:39:21.463Z,100974.50
2022-09-22T09:44:30.253Z,100968.09
2022-09-22T09:49:33.137Z,100963.00
2022-09-22T09:54:37.528Z,100961.38
2022-09-22T10:00:01.033Z,100963.03
2022-09-22T10:05:07.466Z,100965.84
2022-09-22T10:10:35.431Z,100965.41
2022-09-22T10:15:41.330Z,100965.75
2022-09-22T10:20:43.993Z,100964.53
2022-09-22T10:25:46.950Z,100953.88
2022-09-22T10:30:59.019Z,100949.16
2022-09-22T10:36:11.000Z,100951.06
2022-09-22T10:41:17.913Z,100947.06
2022-09-22T10:46:52.512Z,100947.97
2022-09-22T10:52:08.379Z,100961.41
2022-09-22T10:57:31.368Z,100960.50
2022-09-22T11:02:57.116Z,100950.72
2022-09-22T11:08:25.299Z,100955.22
2022-09-22T11:13:40.097Z,100943.25
2022-09-22T11:19:09.811Z,100936.28
2022-09-22T11:24:29.069Z,100948.72
2022-09-22T11:30:11.091Z,100935.41
2022-09-22T11:35:28.869Z,100935.59
2022-09-22T11:41:02.197Z,100927.69
2022-09-22T11:46:09.486Z,100925.28
2022-09-22T11:51:31.520Z,100915.88
2022-09-22T11:56:41.127Z,100912.69
2022-09-22T12:01:45.983Z,100911.72
2022-09-22T12:06:56.754Z,100896.53
2022-09-22T12:12:02.297Z,100891.47
2022-09-22T12:17:11.299Z,100893.09
2022-09-22T12:22:24.670Z,100882.97
2022-09-22T12:27:29.672Z,100883.75
2022-09-22T12:32:37.590Z,100875.69
2022-09-22T12:37:41.583Z,100867.50
2022-09-22T12:42:51.086Z,100870.81
2022-09-22T12:47:56.394Z,100873.13
2022-09-22T12:53:06.612Z,100870.66
2022-09-22T12:58:41.208Z,100872.63
2022-09-22T13:03:50.079Z,100872.25
2022-09-22T13:09:24.137Z,100857.78
2022-09-22T13:15:03.452Z,100855.44
2022-09-22T13:20:16.245Z,100857.84
2022-09-22T13:25:28.798Z,100854.06
2022-09-22T13:30:32.217Z,100842.03
2022-09-22T13:35:38.291Z,100841.94
2022-09-22T13:40:48.869Z,100850.78
2022-09-22T13:45:52.570Z,100839.44
2022-09-22T13:50:58.335Z,100835.28
2022-09-22T13:56:03.005Z,100831.84
2022-09-22T14:01:15.041Z,100823.03
2022-09-22T14:06:21.107Z,100817.06
2022-09-22T14:11:28.220Z,100820.72
2022-09-22T14:16:35.671Z,100828.03
2022-09-22T14:21:45.406Z,100812.53
2022-09-22T14:26:51.967Z,100807.69
2022-09-22T14:32:00.319Z,100809.41
2022-09-22T14:37:16.067Z,100814.53
2022-09-22T14:42:25.662Z,100809.91
2022-09-22T14:47:32.342Z,100810.25
2022-09-22T14:52:39.295Z,100801.94
2022-09-22T14:57:48.113Z,100797.50
2022-09-22T15:02:55.590Z,100784.75
2022-09-22T15:07:59.403Z,100788.25
2022-09-22T15:13:28.052Z,100786.72
2022-09-22T15:18:31.253Z,100781.75
2022-09-22T15:23:41.677Z,100784.16
2022-09-22T15:28:48.353Z,100782.13
2022-09-22T15:33:50.948Z,100781.88
2022-09-22T15:38:59.249Z,100777.81
2022-09-22T15:44:03.956Z,100781.16
2022-09-22T15:49:12.348Z,100772.28
2022-09-22T15:54:16.518Z,100775.00
2022-09-22T15:59:22.736Z,100778.44
2022-09-22T16:04:27.373Z,100771.56
2022-09-22T16:09:30.120Z,100772.19
2022-09-22T16:14:34.442Z,100766.78
2022-09-22T16:19:37.058Z,100765.38
2022-09-22T16:24:39.605Z,100761.69
2022-09-22T16:29:44.093Z,100760.13
2022-09-22T16:34:46.843Z,100760.34
2022-09-22T16:39:49.721Z,100755.44
2022-09-22T16:44:53.723Z,100753.50
2022-09-22T16:49:56.388Z,100752.84
2022-09-22T16:54:59.683Z,100745.78
2022-09-22T17:00:04.444Z,100747.81
2022-09-22T17:05:07.389Z,100751.47
2022-09-22T17:10:10.828Z,100755.03
2022-09-22T17:15:16.249Z,100758.84
2022-09-22T17:20:18.841Z,100754.75
2022-09-22T17:25:21.631Z,100749.38
2022-09-22T17:30:26.229Z,100751.31
2022-09-22T17:35:28.979Z,100760.47
2022-09-22T17:40:59.321Z,100756.25
2022-09-22T17:46:03.624Z,100759.25
2022-09-22T17:51:24.596Z,100762.25
2022-09-22T17:56:29.142Z,100748.22
2022-09-22T18:01:33.742Z,100752.06
2022-09-22T18:06:36.321Z,100754.25
2022-09-22T18:11:42.909Z,100758.84
2022-09-22T18:16:48.022Z,100762.72
2022-09-22T18:21:50.726Z,100763.78
2022-09-22T18:26:53.625Z,100764.88
2022-09-22T18:31:58.957Z,100765.63
2022-09-22T18:37:03.240Z,100767.16
2022-09-22T18:42:11.024Z,100761.25
2022-09-22T18:47:18.408Z,100763.44
2022-09-22T18:52:24.843Z,100764.78
2022-09-22T18:57:28.602Z,100771.59
2022-09-22T19:02:32.753Z,100771.94
2022-09-22T19:07:43.926Z,100774.31
2022-09-22T19:12:47.168Z,100766.59
2022-09-22T19:17:51.534Z,100766.94
2022-09-22T19:22:54.300Z,100773.78
2022-09-22T19:27:57.286Z,100766.31
2022-09-22T19:33:02.354Z,100765.13
2022-09-22T19:38:06.419Z,100760.38
2022-09-22T19:43:09.111Z,100760.16
2022-09-22T19:48:14.257Z,100761.69
2022-09-22T19:53:17.229Z,100759.72
2022-09-22T19:58:19.802Z,100763.09
2022-09-22T20:03:23.846Z,100759.34
2022-09-22T20:08:27.167Z,100753.81
2022-09-22T20:13:47.588Z,100753.59
2022-09-22T20:18:51.486Z,100741.84
2022-09-22T20:23:54.388Z,100755.00
2022-09-22T20:28:57.833Z,100753.16
2022-09-22T20:34:02.023Z,100742.25
2022-09-22T20:39:05.340Z,100740.19
2022-09-22T20:44:12.981Z,100736.31
2022-09-22T20:49:19.415Z,100739.66
2022-09-22T20:54:24.244Z,100731.16
2022-09-22T20:59:28.703Z,100730.81
2022-09-22T21:04:32.718Z,100745.19
2022-09-22T21:09:53.164Z,100737.09
2022-09-22T21:14:57.278Z,100741.50
2022-09-22T21:20:01.998Z,100729.59
2022-09-22T21:25:05.207Z,100733.16
2022-09-22T21:30:09.163Z,100741.28
2022-09-22T21:35:16.530Z,100732.97
2022-09-22T21:40:20.091Z,100729.06
2022-09-22T21:45:22.828Z,100731.78
2022-09-22T21:50:28.158Z,100729.69
2022-09-22T21:55:31.232Z,100720.50
2022-09-22T22:00:51.261Z,100723.22
2022-09-22T22:06:06.235Z,100726.53
2022-09-22T22:11:10.627Z,100736.28
2022-09-22T22:16:14.687Z,100731.75
2022-09-22T22:21:21.283Z,100728.06
2022-09-22T22:26:28.768Z,100722.53
2022-09-22T22:31:31.317Z,100719.63
2022-09-22T22:36:35.255Z,100717.78
2022-09-22T22:41:38.770Z,100712.38
2022-09-22T22:46:41.365Z,100709.66
2022-09-22T22:51:45.449Z,100709.44
2022-09-22T22:56:51.209Z,100702.28
2022-09-22T23:01:54.233Z,100704.78
2022-09-22T23:06:58.157Z,100702.28
2022-09-22T23:12:00.730Z,100706.50
2022-09-22T23:17:03.386Z,100701.97
2022-09-22T23:22:07.475Z,100697.41
2022-09-22T23:27:13.107Z,100675.78
2022-09-22T23:32:15.744Z,100681.84
2022-09-22T23:37:19.752Z,100671.00
2022-09-22T23:42:22.469Z,100672.84
2022-09-22T23:47:25.064Z,100664.63
2022-09-22T23:52:29.064Z,100662.16
2022-09-22T23:57:31.617Z,100665.41
